createdAt,value
2019-05-19T00:00:06.085Z,19.12
2019-05-19T00:01:06.084Z,19.12
2019-05-19T00:02:06.057Z,19.09
2019-05-19T00:03:06.067Z,19.10
2019-05-19T00:04:06.026Z,19.10
2019-05-19T00:05:06.025Z,19.12
2019-05-19T00:06:05.999Z,19.05
2019-05-19T00:07:06.055Z,19.07
2019-05-19T00:08:05.993Z,19.06
2019-05-19T00:09:06.006Z,19.12
2019-05-19T00:10:05.979Z,19.01
2019-05-19T00:11:05.971Z,19.12
2019-05-19T00:12:05.949Z,19.05
2019-05-19T00:13:05.976Z,19.05
2019-05-19T00:14:05.936Z,19.13
2019-05-19T00:15:05.938Z,19.05
2019-05-19T00:16:05.912Z,19.12
2019-05-19T00:17:05.938Z,19.07
2019-05-19T00:18:05.915Z,18.99
2019-05-19T00:19:05.895Z,18.97
2019-05-19T00:20:05.869Z,18.94
2019-05-19T00:21:05.905Z,19.09
2019-05-19T00:22:05.829Z,19.01
2019-05-19T00:23:05.822Z,18.94
2019-05-19T00:24:05.837Z,18.96
2019-05-19T00:25:05.910Z,18.96
2019-05-19T00:26:05.824Z,18.90
2019-05-19T00:27:05.794Z,18.91
2019-05-19T00:28:05.810Z,18.93
2019-05-19T00:29:05.776Z,18.99
2019-05-19T00:30:05.771Z,19.01
2019-05-19T00:31:05.742Z,19.01
2019-05-19T00:32:05.757Z,19.06
2019-05-19T00:33:05.774Z,19.01
2019-05-19T00:34:05.748Z,18.97
2019-05-19T00:35:05.719Z,18.97
2019-05-19T00:36:05.723Z,18.97
2019-05-19T00:37:05.695Z,18.96
2019-05-19T00:38:05.697Z,19.02
2019-05-19T00:39:05.673Z,19.12
2019-05-19T00:40:05.694Z,19.07
2019-05-19T00:41:05.640Z,19.10
2019-05-19T00:42:05.665Z,18.97
2019-05-19T00:43:05.658Z,18.89
2019-05-19T00:44:05.632Z,18.89
2019-05-19T00:45:05.662Z,18.90
2019-05-19T00:46:05.619Z,18.90
2019-05-19T00:47:05.594Z,18.84
2019-05-19T00:48:05.610Z,18.91
2019-05-19T00:49:05.582Z,18.87
2019-05-19T00:50:05.558Z,18.89
2019-05-19T00:51:05.576Z,18.89
2019-05-19T00:52:05.548Z,18.90
2019-05-19T00:53:05.549Z,18.90
2019-05-19T00:54:05.547Z,18.90
2019-05-19T00:55:05.516Z,18.93
2019-05-19T00:56:05.526Z,18.90
2019-05-19T00:57:05.522Z,18.84
2019-05-19T00:58:05.482Z,18.89
2019-05-19T00:59:05.510Z,18.99
2019-05-19T01:00:05.478Z,19.01
2019-05-19T01:01:05.480Z,19.01
2019-05-19T01:02:05.479Z,18.87
2019-05-19T01:03:05.449Z,18.97
2019-05-19T01:04:05.445Z,18.87
2019-05-19T01:05:05.438Z,18.94
2019-05-19T01:06:05.414Z,18.90
2019-05-19T01:07:05.380Z,18.90
2019-05-19T01:08:05.382Z,18.89
2019-05-19T01:09:05.375Z,18.97
2019-05-19T01:10:05.388Z,18.91
2019-05-19T01:11:05.416Z,18.93
2019-05-19T01:12:05.362Z,18.89
2019-05-19T01:13:05.349Z,18.94
2019-05-19T01:14:05.347Z,18.89
2019-05-19T01:15:05.335Z,18.90
2019-05-19T01:16:05.323Z,18.87
2019-05-19T01:17:05.332Z,18.89
2019-05-19T01:18:05.308Z,18.89
2019-05-19T01:19:05.301Z,18.83
2019-05-19T01:20:05.286Z,18.90
2019-05-19T01:21:05.271Z,18.86
2019-05-19T01:22:05.239Z,18.84
2019-05-19T01:23:05.279Z,18.83
2019-05-19T01:24:05.281Z,18.83
2019-05-19T01:25:05.217Z,18.86
2019-05-19T01:26:05.209Z,18.90
2019-05-19T01:27:05.185Z,18.83
2019-05-19T01:28:05.202Z,18.91
2019-05-19T01:29:05.173Z,18.78
2019-05-19T01:30:05.173Z,18.82
2019-05-19T01:31:05.165Z,18.90
2019-05-19T01:32:05.164Z,18.79
2019-05-19T01:33:05.131Z,18.79
2019-05-19T01:34:05.139Z,18.82
2019-05-19T01:35:05.122Z,18.79
2019-05-19T01:36:05.139Z,18.79
2019-05-19T01:37:05.095Z,18.78
2019-05-19T01:38:05.068Z,18.72
2019-05-19T01:39:05.091Z,18.76
2019-05-19T01:40:05.090Z,18.74
2019-05-19T01:41:05.072Z,18.68
2019-05-19T01:42:05.090Z,18.64
2019-05-19T01:43:05.074Z,18.72
2019-05-19T01:44:05.042Z,18.64
2019-05-19T01:45:05.078Z,18.51
2019-05-19T01:46:05.059Z,18.53
2019-05-19T01:47:04.996Z,18.57
2019-05-19T01:48:05.011Z,18.49
2019-05-19T01:49:04.989Z,18.49
2019-05-19T01:50:17.054Z,18.56
2019-05-19T01:51:05.008Z,18.57
2019-05-19T01:52:04.934Z,18.56
2019-05-19T01:53:04.937Z,18.62
2019-05-19T01:54:04.910Z,18.60
2019-05-19T01:55:04.927Z,18.53
2019-05-19T01:56:04.910Z,18.47
2019-05-19T01:57:04.943Z,18.44
2019-05-19T01:58:04.884Z,18.47
2019-05-19T01:59:04.851Z,18.47
2019-05-19T02:00:04.872Z,18.44
2019-05-19T02:01:04.896Z,18.41
2019-05-19T02:02:04.841Z,18.36
2019-05-19T02:03:04.819Z,18.42
2019-05-19T02:04:04.844Z,18.47
2019-05-19T02:05:04.858Z,18.36
2019-05-19T02:06:04.801Z,18.35
2019-05-19T02:07:04.805Z,18.44
2019-05-19T02:08:04.829Z,18.38
2019-05-19T02:09:04.765Z,18.42
2019-05-19T02:10:04.763Z,18.35
2019-05-19T02:11:04.737Z,18.42
2019-05-19T02:12:04.737Z,18.44
2019-05-19T02:13:05.276Z,18.42
2019-05-19T02:14:04.708Z,18.47
2019-05-19T02:15:04.699Z,18.41
2019-05-19T02:16:04.689Z,18.41
2019-05-19T02:17:04.689Z,18.42
2019-05-19T02:18:04.668Z,18.38
2019-05-19T02:19:04.651Z,18.49
2019-05-19T02:20:04.632Z,18.39
2019-05-19T02:21:04.671Z,18.41
2019-05-19T02:22:04.623Z,18.34
2019-05-19T02:23:04.639Z,18.42
2019-05-19T02:24:04.617Z,18.39
2019-05-19T02:25:04.602Z,18.29
2019-05-19T02:26:04.655Z,18.41
2019-05-19T02:27:04.595Z,18.42
2019-05-19T02:28:04.575Z,18.39
2019-05-19T02:29:04.568Z,18.39
2019-05-19T02:30:04.626Z,18.42
2019-05-19T02:31:04.581Z,18.42
2019-05-19T02:32:04.532Z,18.39
2019-05-19T02:33:04.544Z,18.29
2019-05-19T02:34:04.542Z,18.39
2019-05-19T02:35:04.561Z,18.38
2019-05-19T02:36:04.495Z,18.49
2019-05-19T02:37:04.471Z,18.34
2019-05-19T02:38:04.442Z,18.41
2019-05-19T02:39:04.461Z,18.35
2019-05-19T02:40:04.451Z,18.38
2019-05-19T02:41:04.445Z,18.31
2019-05-19T02:42:04.453Z,18.36
2019-05-19T02:43:04.406Z,18.35
2019-05-19T02:44:04.414Z,18.21
2019-05-19T02:45:04.385Z,18.20
2019-05-19T02:46:04.379Z,18.26
2019-05-19T02:47:04.401Z,18.16
2019-05-19T02:48:04.371Z,18.28
2019-05-19T02:49:04.360Z,18.20
2019-05-19T02:50:04.349Z,18.16
2019-05-19T02:51:04.369Z,18.11
2019-05-19T02:52:04.330Z,18.14
2019-05-19T02:53:04.321Z,18.09
2019-05-19T02:54:04.301Z,18.13
2019-05-19T02:55:04.305Z,18.20
2019-05-19T02:56:04.287Z,18.17
2019-05-19T02:57:04.279Z,18.20
2019-05-19T02:58:04.262Z,18.17
2019-05-19T02:59:04.245Z,18.14
2019-05-19T03:00:04.246Z,18.07
2019-05-19T03:01:04.216Z,18.05
2019-05-19T03:02:04.236Z,18.17
2019-05-19T03:03:04.200Z,18.11
2019-05-19T03:04:04.187Z,18.19
2019-05-19T03:05:04.207Z,18.10
2019-05-19T03:06:04.170Z,18.13
2019-05-19T03:07:04.160Z,18.11
2019-05-19T03:08:04.140Z,18.07
2019-05-19T03:09:04.140Z,18.14
2019-05-19T03:10:04.124Z,18.11
2019-05-19T03:11:04.143Z,18.13
2019-05-19T03:12:04.126Z,18.13
2019-05-19T03:13:04.077Z,18.14
2019-05-19T03:14:04.134Z,18.11
2019-05-19T03:15:04.085Z,18.10
2019-05-19T03:16:04.075Z,18.16
2019-05-19T03:17:04.054Z,18.16
2019-05-19T03:18:04.054Z,18.07
2019-05-19T03:19:04.019Z,18.05
2019-05-19T03:20:04.032Z,17.99
2019-05-19T03:21:10.998Z,18.01
2019-05-19T03:22:04.036Z,17.99
2019-05-19T03:23:03.997Z,18.11
2019-05-19T03:24:04.033Z,18.11
2019-05-19T03:25:03.977Z,18.13
2019-05-19T03:26:03.968Z,18.19
2019-05-19T03:27:03.944Z,18.14
2019-05-19T03:28:03.929Z,18.17
2019-05-19T03:29:03.920Z,18.19
2019-05-19T03:30:03.931Z,18.13
2019-05-19T03:31:03.926Z,18.23
2019-05-19T03:32:03.897Z,18.17
2019-05-19T03:33:03.901Z,18.21
2019-05-19T03:34:03.908Z,18.21
2019-05-19T03:35:03.886Z,18.25
2019-05-19T03:36:03.843Z,18.31
2019-05-19T03:37:03.841Z,18.21
2019-05-19T03:38:03.829Z,18.25
2019-05-19T03:39:03.820Z,18.26
2019-05-19T03:40:03.831Z,18.25
2019-05-19T03:41:03.811Z,18.20
2019-05-19T03:42:03.800Z,18.34
2019-05-19T03:43:03.790Z,18.32
2019-05-19T03:44:03.795Z,18.20
2019-05-19T03:45:03.762Z,18.23
2019-05-19T03:46:03.752Z,18.32
2019-05-19T03:47:03.746Z,18.20
2019-05-19T03:48:03.717Z,18.20
2019-05-19T03:49:03.695Z,18.26
2019-05-19T03:50:03.748Z,18.20
2019-05-19T03:51:03.737Z,18.31
2019-05-19T03:52:03.672Z,18.36
2019-05-19T03:53:03.655Z,18.38
2019-05-19T03:54:03.670Z,18.38
2019-05-19T03:55:03.657Z,18.32
2019-05-19T03:56:03.624Z,18.29
2019-05-19T03:57:03.636Z,18.29
2019-05-19T03:58:03.621Z,18.35
2019-05-19T03:59:03.620Z,18.36
2019-05-19T04:00:03.610Z,18.31
2019-05-19T04:01:03.574Z,18.34
2019-05-19T04:02:03.566Z,18.31
2019-05-19T04:03:03.549Z,18.49
2019-05-19T04:04:03.612Z,18.35
2019-05-19T04:05:03.551Z,18.38
2019-05-19T04:06:03.526Z,18.47
2019-05-19T04:07:03.528Z,18.41
2019-05-19T04:08:03.525Z,18.39
2019-05-19T04:09:03.546Z,18.41
2019-05-19T04:10:03.497Z,18.46
2019-05-19T04:11:03.485Z,18.49
2019-05-19T04:12:03.475Z,18.46
2019-05-19T04:13:03.453Z,18.44
2019-05-19T04:14:03.464Z,18.49
2019-05-19T04:15:03.456Z,18.44
2019-05-19T04:16:03.444Z,18.56
2019-05-19T04:17:03.426Z,18.36
2019-05-19T04:18:03.406Z,18.41
2019-05-19T04:19:03.402Z,18.42
2019-05-19T04:20:03.418Z,18.47
2019-05-19T04:21:03.398Z,18.44
2019-05-19T04:22:03.361Z,18.46
2019-05-19T04:23:03.366Z,18.44
2019-05-19T04:24:03.361Z,18.50
2019-05-19T04:25:03.348Z,18.53
2019-05-19T04:26:03.363Z,18.49
2019-05-19T04:27:03.337Z,18.50
2019-05-19T04:28:03.320Z,18.50
2019-05-19T04:29:03.287Z,18.41
2019-05-19T04:30:03.286Z,18.49
2019-05-19T04:31:03.274Z,18.41
2019-05-19T04:32:03.253Z,18.49
2019-05-19T04:33:03.255Z,18.49
2019-05-19T04:34:03.240Z,18.53
2019-05-19T04:35:03.235Z,18.51
2019-05-19T04:36:03.267Z,18.50
2019-05-19T04:37:03.204Z,18.50
2019-05-19T04:38:03.215Z,18.60
2019-05-19T04:39:03.205Z,18.62
2019-05-19T04:40:03.164Z,18.62
2019-05-19T04:41:03.188Z,18.54
2019-05-19T04:42:03.171Z,18.53
2019-05-19T04:43:03.202Z,18.49
2019-05-19T04:44:03.121Z,18.53
2019-05-19T04:45:03.121Z,18.53
2019-05-19T04:46:03.105Z,18.51
2019-05-19T04:47:03.111Z,18.53
2019-05-19T04:48:03.085Z,18.64
2019-05-19T04:49:03.106Z,18.57
2019-05-19T04:50:03.098Z,18.56
2019-05-19T04:51:03.067Z,18.53
2019-05-19T04:52:07.019Z,18.50
2019-05-19T04:53:03.090Z,18.56
2019-05-19T04:54:03.052Z,18.60
2019-05-19T04:55:03.014Z,18.60
2019-05-19T04:56:03.319Z,18.51
2019-05-19T04:57:03.021Z,18.51
2019-05-19T04:58:02.983Z,18.51
2019-05-19T04:59:03.002Z,18.64
2019-05-19T05:00:02.955Z,18.56
2019-05-19T05:01:02.953Z,18.59
2019-05-19T05:02:03.206Z,18.62
2019-05-19T05:03:02.971Z,18.64
2019-05-19T05:04:02.940Z,18.51
2019-05-19T05:05:02.926Z,18.59
2019-05-19T05:06:02.915Z,18.54
2019-05-19T05:07:02.914Z,18.60
2019-05-19T05:08:03.219Z,18.65
2019-05-19T05:09:02.896Z,18.69
2019-05-19T05:10:02.923Z,18.66
2019-05-19T05:11:02.882Z,18.64
2019-05-19T05:12:02.859Z,18.66
2019-05-19T05:13:02.838Z,18.66
2019-05-19T05:14:03.031Z,18.64
2019-05-19T05:15:02.819Z,18.62
2019-05-19T05:16:02.805Z,18.53
2019-05-19T05:17:02.807Z,18.64
2019-05-19T05:18:02.799Z,18.60
2019-05-19T05:19:03.047Z,18.59
2019-05-19T05:20:02.800Z,18.66
2019-05-19T05:21:02.776Z,18.64
2019-05-19T05:22:02.753Z,18.59
2019-05-19T05:23:02.756Z,18.62
2019-05-19T05:24:03.040Z,18.53
2019-05-19T05:25:02.766Z,18.64
2019-05-19T05:26:02.717Z,18.66
2019-05-19T05:27:02.693Z,18.72
2019-05-19T05:28:02.681Z,18.66
2019-05-19T05:29:03.074Z,18.68
2019-05-19T05:30:02.681Z,18.68
2019-05-19T05:31:02.663Z,18.69
2019-05-19T05:32:02.644Z,18.68
2019-05-19T05:33:02.623Z,18.62
2019-05-19T05:34:03.124Z,18.64
2019-05-19T05:35:02.624Z,18.54
2019-05-19T05:36:02.633Z,18.65
2019-05-19T05:37:02.593Z,18.62
2019-05-19T05:38:02.659Z,18.71
2019-05-19T05:39:02.554Z,18.64
2019-05-19T05:40:02.906Z,18.64
2019-05-19T05:41:02.546Z,18.64
2019-05-19T05:42:02.538Z,18.64
2019-05-19T05:43:02.548Z,18.72
2019-05-19T05:44:02.571Z,18.71
2019-05-19T05:45:02.872Z,18.66
2019-05-19T05:46:02.512Z,18.78
2019-05-19T05:47:02.484Z,18.68
2019-05-19T05:48:02.519Z,18.75
2019-05-19T05:49:02.458Z,18.76
2019-05-19T05:50:02.757Z,18.78
2019-05-19T05:51:02.429Z,18.78
2019-05-19T05:52:02.435Z,18.82
2019-05-19T05:53:02.410Z,18.79
2019-05-19T05:54:02.470Z,18.75
2019-05-19T05:55:02.753Z,18.75
2019-05-19T05:56:02.396Z,18.82
2019-05-19T05:57:02.397Z,18.78
2019-05-19T05:58:02.383Z,18.76
2019-05-19T05:59:02.367Z,18.82
2019-05-19T06:00:02.742Z,18.79
2019-05-19T06:01:02.351Z,18.74
2019-05-19T06:02:02.330Z,18.91
2019-05-19T06:03:02.407Z,18.82
2019-05-19T06:04:02.310Z,18.75
2019-05-19T06:05:02.623Z,18.86
2019-05-19T06:06:02.301Z,18.75
2019-05-19T06:07:02.289Z,18.89
2019-05-19T06:08:02.289Z,18.79
2019-05-19T06:09:02.278Z,18.76
2019-05-19T06:10:02.610Z,18.76
2019-05-19T06:11:02.254Z,18.76
2019-05-19T06:12:02.243Z,18.74
2019-05-19T06:13:02.241Z,18.75
2019-05-19T06:14:02.223Z,18.74
2019-05-19T06:15:02.201Z,18.71
2019-05-19T06:16:02.522Z,18.79
2019-05-19T06:17:02.191Z,18.74
2019-05-19T06:18:02.190Z,18.78
2019-05-19T06:19:02.206Z,18.78
2019-05-19T06:20:02.409Z,18.74
2019-05-19T06:21:02.163Z,18.82
2019-05-19T06:22:02.393Z,18.83
2019-05-19T06:23:02.119Z,18.84
2019-05-19T06:24:02.118Z,18.75
2019-05-19T06:25:02.113Z,18.87
2019-05-19T06:26:02.085Z,18.75
2019-05-19T06:27:02.090Z,18.76
2019-05-19T06:28:02.377Z,18.90
2019-05-19T06:29:02.058Z,18.82
2019-05-19T06:30:02.058Z,18.84
2019-05-19T06:31:02.058Z,18.89
2019-05-19T06:32:02.043Z,18.84
2019-05-19T06:33:02.021Z,18.90
2019-05-19T06:34:02.269Z,18.89
2019-05-19T06:35:02.357Z,18.83
2019-05-19T06:36:01.984Z,18.79
2019-05-19T06:37:02.049Z,18.76
2019-05-19T06:38:02.096Z,18.89
2019-05-19T06:39:01.942Z,18.84
2019-05-19T06:40:02.305Z,18.84
2019-05-19T06:41:01.961Z,18.89
2019-05-19T06:42:01.922Z,18.72
2019-05-19T06:43:01.938Z,18.82
2019-05-19T06:44:03.435Z,18.76
2019-05-19T06:45:01.925Z,18.79
2019-05-19T06:46:02.161Z,18.83
2019-05-19T06:47:01.894Z,18.82
2019-05-19T06:48:01.864Z,18.75
2019-05-19T06:49:01.879Z,18.74
2019-05-19T06:50:02.063Z,18.79
2019-05-19T06:51:02.219Z,18.79
2019-05-19T06:52:01.827Z,18.74
2019-05-19T06:53:13.446Z,18.79
2019-05-19T06:54:01.822Z,18.83
2019-05-19T06:55:01.807Z,18.78
2019-05-19T06:56:01.778Z,18.78
2019-05-19T06:57:02.085Z,18.76
2019-05-19T06:58:01.782Z,18.74
2019-05-19T06:59:01.773Z,18.79
2019-05-19T07:00:01.757Z,18.79
2019-05-19T07:01:01.754Z,18.78
2019-05-19T07:02:01.929Z,18.64
2019-05-19T07:03:01.764Z,18.75
2019-05-19T07:04:01.717Z,18.78
2019-05-19T07:05:01.698Z,18.78
2019-05-19T07:06:01.699Z,18.66
2019-05-19T07:07:02.097Z,18.69
2019-05-19T07:08:01.664Z,18.68
2019-05-19T07:09:01.650Z,18.68
2019-05-19T07:10:01.640Z,18.65
2019-05-19T07:11:01.638Z,18.57
2019-05-19T07:12:01.918Z,18.65
2019-05-19T07:13:01.617Z,18.74
2019-05-19T07:14:03.022Z,18.65
2019-05-19T07:15:01.618Z,18.68
2019-05-19T07:16:01.599Z,18.65
2019-05-19T07:17:01.942Z,18.71
2019-05-19T07:18:01.571Z,18.71
2019-05-19T07:19:01.600Z,18.66
2019-05-19T07:20:01.532Z,18.78
2019-05-19T07:21:01.539Z,18.76
2019-05-19T07:22:01.800Z,18.78
2019-05-19T07:23:01.512Z,18.78
2019-05-19T07:24:01.536Z,18.76
2019-05-19T07:25:01.532Z,18.84
2019-05-19T07:26:01.493Z,18.83
2019-05-19T07:27:01.763Z,18.82
2019-05-19T07:28:01.466Z,18.78
2019-05-19T07:29:01.463Z,18.82
2019-05-19T07:30:01.433Z,18.83
2019-05-19T07:31:01.437Z,18.82
2019-05-19T07:32:01.779Z,18.83
2019-05-19T07:33:01.432Z,18.72
2019-05-19T07:34:01.382Z,18.84
2019-05-19T07:35:01.384Z,18.82
2019-05-19T07:36:01.377Z,18.79
2019-05-19T07:37:01.609Z,18.76
2019-05-19T07:38:01.349Z,18.78
2019-05-19T07:39:01.353Z,18.83
2019-05-19T07:40:01.344Z,18.90
2019-05-19T07:41:01.325Z,18.93
2019-05-19T07:42:01.319Z,18.75
2019-05-19T07:43:01.651Z,18.84
2019-05-19T07:44:01.306Z,18.83
2019-05-19T07:45:01.338Z,18.79
2019-05-19T07:46:01.274Z,18.78
2019-05-19T07:47:01.267Z,18.76
2019-05-19T07:48:01.525Z,18.83
2019-05-19T07:49:01.225Z,18.74
2019-05-19T07:50:01.254Z,18.83
2019-05-19T07:51:01.216Z,18.74
2019-05-19T07:52:01.210Z,18.74
2019-05-19T07:53:01.221Z,18.79
2019-05-19T07:54:01.435Z,18.69
2019-05-19T07:55:01.217Z,18.83
2019-05-19T07:56:01.172Z,18.79
2019-05-19T07:57:01.210Z,18.75
2019-05-19T07:58:01.159Z,18.79
2019-05-19T07:59:01.136Z,18.79
2019-05-19T08:00:01.395Z,18.78
2019-05-19T08:01:01.158Z,18.72
2019-05-19T08:02:01.134Z,18.75
2019-05-19T08:03:01.091Z,18.66
2019-05-19T08:04:01.100Z,18.64
2019-05-19T08:05:01.088Z,18.71
2019-05-19T08:06:01.320Z,18.65
2019-05-19T08:07:01.058Z,18.69
2019-05-19T08:08:01.064Z,18.69
2019-05-19T08:09:01.058Z,18.75
2019-05-19T08:10:01.027Z,18.65
2019-05-19T08:11:01.035Z,18.60
2019-05-19T08:12:01.226Z,18.65
2019-05-19T08:13:00.993Z,18.64
2019-05-19T08:14:00.986Z,18.64
2019-05-19T08:15:00.992Z,18.62
2019-05-19T08:16:00.963Z,18.57
2019-05-19T08:17:00.933Z,18.65
2019-05-19T08:18:01.296Z,18.59
2019-05-19T08:19:00.945Z,18.59
2019-05-19T08:20:00.928Z,18.62
2019-05-19T08:21:00.966Z,18.64
2019-05-19T08:22:00.922Z,18.57
2019-05-19T08:23:00.890Z,18.56
2019-05-19T08:24:01.322Z,18.56
2019-05-19T08:25:00.872Z,18.62
2019-05-19T08:26:00.875Z,18.57
2019-05-19T08:27:00.852Z,18.62
2019-05-19T08:28:08.512Z,18.60
2019-05-19T08:29:01.041Z,18.56
2019-05-19T08:30:00.828Z,18.59
2019-05-19T08:31:00.849Z,18.64
2019-05-19T08:32:00.799Z,18.57
2019-05-19T08:33:00.807Z,18.62
2019-05-19T08:34:01.348Z,18.68
2019-05-19T08:35:00.807Z,18.72
2019-05-19T08:36:00.783Z,18.57
2019-05-19T08:37:00.787Z,18.56
2019-05-19T08:38:00.755Z,18.64
2019-05-19T08:39:00.737Z,18.56
2019-05-19T08:40:01.140Z,18.56
2019-05-19T08:41:00.752Z,18.57
2019-05-19T08:42:00.705Z,18.60
2019-05-19T08:43:00.693Z,18.54
2019-05-19T08:44:00.738Z,18.64
2019-05-19T08:45:00.913Z,18.51
2019-05-19T08:46:00.660Z,18.51
2019-05-19T08:47:00.695Z,18.62
2019-05-19T08:48:00.645Z,18.59
2019-05-19T08:49:00.631Z,18.60
2019-05-19T08:50:00.955Z,18.71
2019-05-19T08:51:00.588Z,18.65
2019-05-19T08:52:00.587Z,18.68
2019-05-19T08:53:00.639Z,18.69
2019-05-19T08:54:13.826Z,18.56
2019-05-19T08:55:00.926Z,18.56
2019-05-19T08:56:00.559Z,18.50
2019-05-19T08:57:00.559Z,18.51
2019-05-19T08:58:00.535Z,18.46
2019-05-19T08:59:00.528Z,18.44
2019-05-19T09:00:00.751Z,18.51
2019-05-19T09:01:00.491Z,18.51
2019-05-19T09:02:00.531Z,18.49
2019-05-19T09:03:00.466Z,18.57
2019-05-19T09:04:00.469Z,18.65
2019-05-19T09:05:00.473Z,18.60
2019-05-19T09:06:00.788Z,18.54
2019-05-19T09:07:00.445Z,18.56
2019-05-19T09:08:00.423Z,18.59
2019-05-19T09:09:00.434Z,18.53
2019-05-19T09:10:00.407Z,18.53
2019-05-19T09:11:00.386Z,18.53
2019-05-19T09:12:00.625Z,18.50
2019-05-19T09:13:00.482Z,18.62
2019-05-19T09:14:00.409Z,18.60
2019-05-19T09:15:00.347Z,18.54
2019-05-19T09:16:00.341Z,18.56
2019-05-19T09:17:00.366Z,18.54
2019-05-19T09:18:00.881Z,18.53
2019-05-19T09:19:00.307Z,18.44
2019-05-19T09:20:00.315Z,18.38
2019-05-19T09:21:00.296Z,18.39
2019-05-19T09:22:00.303Z,18.39
2019-05-19T09:23:00.294Z,18.46
2019-05-19T09:24:00.623Z,18.42
2019-05-19T09:25:00.252Z,18.49
2019-05-19T09:26:00.232Z,18.51
2019-05-19T09:27:00.256Z,18.54
2019-05-19T09:28:00.212Z,18.56
2019-05-19T09:29:00.295Z,18.49
2019-05-19T09:30:02.205Z,18.51
2019-05-19T09:31:00.192Z,18.56
2019-05-19T09:32:00.165Z,18.56
2019-05-19T09:33:00.199Z,18.54
2019-05-19T09:34:00.179Z,18.53
2019-05-19T09:35:00.138Z,18.62
2019-05-19T09:36:00.382Z,18.60
2019-05-19T09:37:00.123Z,18.69
2019-05-19T09:38:00.104Z,18.66
2019-05-19T09:39:00.111Z,18.69
2019-05-19T09:40:00.125Z,18.71
2019-05-19T09:41:00.073Z,18.66
2019-05-19T09:42:00.480Z,18.66
2019-05-19T09:43:00.067Z,18.66
2019-05-19T09:44:00.092Z,18.75
2019-05-19T09:45:00.040Z,18.72
2019-05-19T09:46:00.008Z,18.71
2019-05-19T09:47:00.062Z,18.68
2019-05-19T09:48:00.650Z,18.68
2019-05-19T09:49:00.011Z,18.64
2019-05-19T09:49:59.992Z,18.66
2019-05-19T09:50:59.983Z,18.66
2019-05-19T09:51:59.971Z,18.62
2019-05-19T09:52:59.959Z,18.62
2019-05-19T09:54:00.203Z,18.51
2019-05-19T09:54:59.952Z,18.74
2019-05-19T09:55:59.910Z,18.66
2019-05-19T09:56:59.926Z,18.69
2019-05-19T09:57:59.911Z,18.66
2019-05-19T09:59:00.357Z,18.69
2019-05-19T09:59:59.899Z,18.64
2019-05-19T10:00:59.880Z,18.74
2019-05-19T10:01:59.902Z,18.69
2019-05-19T10:02:59.858Z,18.79
2019-05-19T10:03:59.856Z,18.78
2019-05-19T10:05:00.245Z,18.82
2019-05-19T10:05:59.823Z,18.83
2019-05-19T10:06:59.888Z,18.74
2019-05-19T10:07:59.879Z,18.82
2019-05-19T10:08:59.780Z,18.82
2019-05-19T10:10:00.051Z,18.79
2019-05-19T10:10:59.776Z,18.76
2019-05-19T10:11:59.775Z,18.86
2019-05-19T10:12:59.774Z,18.78
2019-05-19T10:13:59.759Z,18.76
2019-05-19T10:15:00.089Z,18.79
2019-05-19T10:15:59.716Z,18.78
2019-05-19T10:16:59.732Z,18.79
2019-05-19T10:17:59.686Z,18.75
2019-05-19T10:18:59.692Z,18.83
2019-05-19T10:19:59.687Z,18.76
2019-05-19T10:21:00.151Z,18.76
2019-05-19T10:21:59.695Z,18.83
2019-05-19T10:22:59.639Z,18.78
2019-05-19T10:23:59.648Z,18.75
2019-05-19T10:25:19.989Z,18.78
2019-05-19T10:25:59.938Z,18.66
2019-05-19T10:26:59.629Z,18.66
2019-05-19T10:27:59.602Z,18.74
2019-05-19T10:28:59.578Z,18.68
2019-05-19T10:29:59.593Z,18.65
2019-05-19T10:30:59.593Z,18.71
2019-05-19T10:31:59.804Z,18.68
2019-05-19T10:32:59.563Z,18.76
2019-05-19T10:33:59.551Z,18.79
2019-05-19T10:34:59.540Z,18.74
2019-05-19T10:35:59.528Z,18.66
2019-05-19T10:36:59.485Z,18.69
2019-05-19T10:37:59.948Z,18.66
2019-05-19T10:38:59.491Z,18.71
2019-05-19T10:39:59.473Z,18.66
2019-05-19T10:40:59.475Z,18.57
2019-05-19T10:41:59.475Z,18.60
2019-05-19T10:42:59.452Z,18.50
2019-05-19T10:44:00.822Z,18.53
2019-05-19T10:44:59.426Z,18.62
2019-05-19T10:45:59.413Z,18.64
2019-05-19T10:46:59.414Z,18.68
2019-05-19T10:47:59.398Z,18.53
2019-05-19T10:48:59.679Z,18.59
2019-05-19T10:49:59.380Z,18.65
2019-05-19T10:50:59.382Z,18.69
2019-05-19T10:51:59.367Z,18.66
2019-05-19T10:52:59.345Z,18.68
2019-05-19T10:53:59.622Z,18.79
2019-05-19T10:54:59.368Z,18.78
2019-05-19T10:55:59.315Z,18.75
2019-05-19T10:56:59.315Z,18.86
2019-05-19T10:57:59.288Z,18.89
2019-05-19T10:58:59.279Z,18.86
2019-05-19T10:59:59.563Z,18.90
2019-05-19T11:00:59.274Z,18.94
2019-05-19T11:01:59.267Z,18.96
2019-05-19T11:02:59.307Z,18.97
2019-05-19T11:03:59.238Z,18.99
2019-05-19T11:04:59.230Z,18.99
2019-05-19T11:05:59.518Z,19.02
2019-05-19T11:06:59.213Z,19.09
2019-05-19T11:07:59.173Z,19.10
2019-05-19T11:08:59.176Z,19.13
2019-05-19T11:09:59.183Z,19.20
2019-05-19T11:10:59.162Z,19.21
2019-05-19T11:11:59.398Z,19.17
2019-05-19T11:12:59.149Z,19.17
2019-05-19T11:13:59.150Z,19.13
2019-05-19T11:14:59.134Z,19.17
2019-05-19T11:15:59.128Z,19.15
2019-05-19T11:16:59.108Z,19.17
2019-05-19T11:17:59.450Z,19.17
2019-05-19T11:18:59.124Z,19.31
2019-05-19T11:19:59.075Z,19.31
2019-05-19T11:20:59.063Z,19.30
2019-05-19T11:21:59.069Z,19.34
2019-05-19T11:22:59.041Z,19.35
2019-05-19T11:23:59.418Z,19.46
2019-05-19T11:24:59.028Z,19.46
2019-05-19T11:25:59.011Z,19.47
2019-05-19T11:26:58.995Z,19.40
2019-05-19T11:27:59.008Z,19.53
2019-05-19T11:28:59.032Z,19.45
2019-05-19T11:29:59.192Z,19.53
2019-05-19T11:30:58.961Z,19.52
2019-05-19T11:31:58.932Z,19.58
2019-05-19T11:32:58.969Z,19.61
2019-05-19T11:33:58.952Z,19.67
2019-05-19T11:34:59.294Z,19.64
2019-05-19T11:35:58.917Z,19.61
2019-05-19T11:36:58.923Z,19.62
2019-05-19T11:37:58.942Z,19.52
2019-05-19T11:38:58.888Z,19.62
2019-05-19T11:39:58.872Z,19.61
2019-05-19T11:40:59.122Z,19.60
2019-05-19T11:41:58.845Z,19.58
2019-05-19T11:42:58.840Z,19.61
2019-05-19T11:43:58.850Z,19.64
2019-05-19T11:44:58.837Z,19.65
2019-05-19T11:45:59.278Z,19.70
2019-05-19T11:46:58.792Z,19.78
2019-05-19T11:47:58.820Z,19.61
2019-05-19T11:48:58.803Z,19.72
2019-05-19T11:49:58.789Z,19.72
2019-05-19T11:50:58.834Z,19.75
2019-05-19T11:51:59.047Z,19.78
2019-05-19T11:52:58.796Z,19.83
2019-05-19T11:53:58.746Z,19.80
2019-05-19T11:54:58.775Z,19.83
2019-05-19T11:56:06.267Z,19.83
2019-05-19T11:56:58.719Z,19.94
2019-05-19T11:57:58.992Z,19.98
2019-05-19T11:58:58.685Z,19.94
2019-05-19T11:59:58.676Z,20.04
2019-05-19T12:00:58.672Z,20.08
2019-05-19T12:01:58.665Z,20.08
2019-05-19T12:02:58.668Z,19.92
2019-05-19T12:03:59.162Z,19.90
2019-05-19T12:04:58.657Z,19.94
2019-05-19T12:05:58.673Z,19.92
2019-05-19T12:06:58.607Z,20.02
2019-05-19T12:07:58.620Z,20.01
2019-05-19T12:08:58.607Z,19.97
2019-05-19T12:09:58.855Z,20.07
2019-05-19T12:10:58.582Z,20.01
2019-05-19T12:11:58.622Z,20.04
2019-05-19T12:12:58.596Z,20.16
2019-05-19T12:13:58.574Z,20.12
2019-05-19T12:14:58.794Z,20.07
2019-05-19T12:15:58.543Z,20.02
2019-05-19T12:16:58.736Z,20.04
2019-05-19T12:17:58.509Z,20.02
2019-05-19T12:18:58.508Z,20.10
2019-05-19T12:19:58.959Z,20.17
2019-05-19T12:20:58.497Z,20.23
2019-05-19T12:21:58.476Z,20.25
2019-05-19T12:22:58.470Z,20.41
2019-05-19T12:23:58.465Z,20.56
2019-05-19T12:24:58.444Z,20.48
2019-05-19T12:25:58.831Z,20.60
2019-05-19T12:26:58.473Z,20.71
2019-05-19T12:27:58.443Z,20.71
2019-05-19T12:28:58.399Z,20.72
2019-05-19T12:29:58.466Z,20.78
2019-05-19T12:30:58.696Z,20.68
2019-05-19T12:31:58.413Z,20.69
2019-05-19T12:32:59.364Z,20.81
2019-05-19T12:33:58.363Z,20.69
2019-05-19T12:34:58.340Z,20.82
2019-05-19T12:35:58.802Z,20.82
2019-05-19T12:36:58.368Z,20.82
2019-05-19T12:37:58.345Z,20.87
2019-05-19T12:38:58.328Z,20.87
2019-05-19T12:39:58.324Z,21.00
2019-05-19T12:40:58.309Z,21.01
2019-05-19T12:41:58.585Z,21.15
2019-05-19T12:42:58.312Z,21.22
2019-05-19T12:43:58.292Z,21.28
2019-05-19T12:44:58.279Z,21.33
2019-05-19T12:45:58.338Z,21.30
2019-05-19T12:46:58.263Z,21.30
2019-05-19T12:47:58.530Z,21.27
2019-05-19T12:48:58.233Z,21.30
2019-05-19T12:49:58.243Z,21.28
2019-05-19T12:50:58.239Z,21.34
2019-05-19T12:51:58.203Z,21.36